Tiempo atmosférico en la estación meteorológica de Alcañices, Zamora (840 m.)



Fecha
DESCASC
Temp. máxima en grados centígrados (hora)
DESCASC
Temp. mínima en grados centígrados (hora)
DESCASC
Temp. media en grados centígrados
DESCASC
Racha de viento máxima en m/sg (hora)
DESCASC
Velocidad máxima media en intervalos de 10 minutos(hora)
DESCASC
Precipitaciones diarias en mm
DESCASC
Precipitaciones de 00:00 a 06:00 en mm
DESCASC
Precipitaciones de 06:00 a 12:00 en mm
DESCASC
Precipitaciones de 12:00 a 18:00 en mm
DESCASC
Precipitaciones de 18:00 a 24:00 en mm
DESCASC
06-07-2020 34.1 (18:30) 16.7 (07:10) 25.4 11.11 (23:30) 8.06 (09:50) 0 0 0 0 0
05-07-2020 34.5 (18:20) 14.7 (05:40) 24.6 8.89 (10:00) 6.39 (09:40) 0 0 0 0 0
04-07-2020 31.9 (19:10) 10.1 (07:00) 21 6.67 (17:40) 5 (03:00) 0 0 0 0 0
03-07-2020 28.8 (19:30) 8.8 (06:30) 18.8 10 (11:20) 6.39 (08:50) 0 0 0 0 0
02-07-2020 23.4 (18:10) 11.2 (00:00) 17.3 12.78 (15:30) 7.5 (18:40) 0 0 0 0 0
01-07-2020 27.3 (15:40) 15.5 (00:00) 21.4 11.67 (14:10) 7.78 (14:10) 0 0 0 0 0
30-06-2020 32.8 (17:30) 14.9 (00:00) 23.8 10.83 (20:40) 7.5 (09:30) 0 0 0 0 0
29-06-2020 31 (19:40) 12.3 (00:00) 21.7 9.44 (17:30) 3.89 (09:20) 0 0 0 0 0
28-06-2020 27.5 (17:30) 12.3 (00:00) 19.9 11.67 (17:30) 6.39 (18:20) 0 0 0 0 0
27-06-2020 23.9 (16:50) 12.8 (00:00) 18.3 9.72 (15:20) 5.83 (15:20) 0 0 0 0 0
26-06-2020 24 (18:50) 12.2 (00:00) 18.1 10.83 (15:00) 6.67 (15:10) 0 0 0 0 0
25-06-2020 28.8 (17:00) 13.6 (00:00) 21.2 11.11 (16:50) 6.94 (17:40) 0 0 0 0 0
24-06-2020 30.9 (16:30) 15.7 (00:00) 23.3 16.94 (17:30) 11.67 (17:40) 0.4 0 0.2 0 0.2
23-06-2020 35.2 (19:20) 15.6 (00:00) 25.4 10 (21:10) 6.39 (21:10) 0 0 0 0 0
22-06-2020 31.6 (18:20) 13.7 (00:00) 22.7 10.28 (05:30) 7.22 (11:40) 0 0 0 0 0
21-06-2020 28.3 (17:00) 8.9 (00:00) 18.6 7.78 (17:30) 4.44 (17:30) 0 0 0 0 0
20-06-2020 26.7 (19:20) 8 (00:00) 17.4 10.56 (17:50) 7.22 (19:50) 0 0 0 0 0
19-06-2020 25.1 (17:40) 6 (00:00) 15.6 10.56 (18:40) 5.83 (19:50) 0 0 0 0 0
18-06-2020 23.7 (18:50) 6.8 (07:20) 15.3 8.06 (17:30) 5 (19:50) 0 0 0 0 0
17-06-2020 21.6 (17:20) 5.6 (00:00) 13.6 8.89 (19:10) 4.72 (20:50) 0 0 0 0 0
16-06-2020 19.1 (19:20) 8.1 (00:00) 13.6 12.5 (15:10) 8.06 (14:50) 0.2 0 0 0.2 0
15-06-2020 18.9 (14:40) 7.4 (00:00) 13.1 11.11 (18:00) 7.5 (18:10) 0 0 0 0 0
14-06-2020 17.7 (16:40) 6.4 (00:00) 12.1 8.89 (13:40) 5.56 (13:40) 0 0 0 0 0
13-06-2020 17.8 (18:40) 6.6 (00:00) 12.2 11.11 (15:10) 7.5 (15:10) 0 0 0 0 0
12-06-2020 12.6 (13:30) 7.5 (00:00) 10.1 13.33 (14:10) 9.44 (14:10) 5.8 0.2 1.2 2.8 1.6
11-06-2020 17 (16:00) 8.1 (00:00) 12.6 15.56 (14:40) 10.28 (14:40) 0 0 0 0 0

Gráficas

Temp. máximas Temp. mínimas Temp. medias Precipitaciones Rachas de viento máximas Velocidades máximas media en intervalos de 10 minutos

Datos horarios

Fecha y hora oficial Temperatura (ºC) Velocidad del viento (km/h) Dirección del viento Racha (km/h) Dirección de racha Precipitación (mm) Presión (hPa) Tendencia (hPa) Humedad (%)
2020-07-10 23:00:00 23 20 Este 32 Este 0 -- -- 53
2020-07-10 22:00:00 24.5 11 Este 13 Este 0 -- -- 44
2020-07-10 21:00:00 29 10 Este 18 Nordeste 0 -- -- 35
2020-07-10 20:00:00 30.4 11 Este 18 Este 0 -- -- 31
2020-07-10 19:00:00 30.2 7 Nordeste 17 Este 0 -- -- 31
2020-07-10 18:00:00 31.8 10 Este 21 Nordeste 0 -- -- 30
2020-07-10 17:00:00 31.7 5 Norte 21 Este 0 -- -- 31
2020-07-10 16:00:00 30.7 7 Nordeste 22 Nordeste 0 -- -- 35
2020-07-10 15:00:00 28.5 14 Este 29 Este 0 -- -- 35
2020-07-10 14:00:00 28.1 16 Este 30 Este 0 -- -- 38
2020-07-10 13:00:00 27.2 11 Nordeste 26 Nordeste 0 -- -- 43
2020-07-10 12:00:00 25.1 13 Este 25 Este 0 -- -- 47
2020-07-10 11:00:00 23.6 12 Este 19 Este 0 -- -- 56
2020-07-10 10:00:00 21.4 10 Nordeste 25 Este 0 -- -- 62
2020-07-10 09:00:00 18.8 19 Nordeste 28 Nordeste 0 -- -- 72
2020-07-10 08:00:00 16.8 17 Nordeste 23 Nordeste 0 -- -- 78
2020-07-10 07:00:00 14.9 11 Nordeste 18 Nordeste 0 -- -- 81
2020-07-10 06:00:00 16 15 Nordeste 21 Nordeste 0 -- -- 76
2020-07-10 05:00:00 16.4 15 Nordeste 24 Nordeste 0 -- -- 74
2020-07-10 04:00:00 17.2 15 Nordeste 23 Nordeste 0 -- -- 72
2020-07-10 03:00:00 18.2 17 Nordeste 30 Este 0 -- -- 70
2020-07-10 02:00:00 19.4 18 Nordeste 26 Nordeste 0 -- -- 65
2020-07-10 01:00:00 19.7 14 Nordeste 22 Nordeste 0 -- -- 59
2020-07-10 00:00:00 20.7 13 Este 21 Este 0 -- -- 54
2020-07-09 23:00:00 23.5 18 Este 35 Nordeste 0 -- -- 44
2020-07-09 22:00:00 25.4 8 Norte 13 Noroeste 0 -- -- 40
2020-07-09 21:00:00 29.7 10 Norte 19 Norte 0 -- -- 33
2020-07-09 20:00:00 31.1 16 Noroeste 36 Noroeste 0 -- -- 29
2020-07-09 19:00:00 31.5 26 Noroeste 38 Noroeste 0 -- -- 28
2020-07-09 18:00:00 32.3 10 Nordeste 23 Norte 0 -- -- 27
2020-07-09 17:00:00 32.9 14 Nordeste 26 Norte 0 -- -- 25
2020-07-09 16:00:00 32 10 Nordeste 27 Nordeste 0 -- -- 30
2020-07-09 15:00:00 30.7 10 Nordeste 22 Nordeste 0 -- -- 33
2020-07-09 14:00:00 30.8 10 Norte 20 Norte 0 -- -- 34
2020-07-09 13:00:00 28.7 8 Nordeste 18 Este 0 -- -- 39
2020-07-09 12:00:00 26.9 8 Este 19 Este 0 -- -- 43
2020-07-09 11:00:00 25.2 14 Nordeste 26 Nordeste 0 -- -- 48
2020-07-09 10:00:00 22.8 18 Nordeste 28 Nordeste 0 -- -- 52
2020-07-09 09:00:00 20.3 14 Nordeste 21 Nordeste 0 -- -- 60
2020-07-09 08:00:00 17.2 15 Nordeste 20 Nordeste 0 -- -- 69
2020-07-09 07:00:00 15.4 14 Nordeste 21 Nordeste 0 -- -- 76
2020-07-09 06:00:00 15.4 17 Nordeste 21 Nordeste 0 -- -- 77
2020-07-09 05:00:00 15.2 14 Nordeste 18 Nordeste 0 -- -- 76
2020-07-09 04:00:00 16.8 12 Nordeste 23 Nordeste 0 -- -- 72
2020-07-09 03:00:00 18.1 17 Nordeste 31 Nordeste 0 -- -- 67
2020-07-09 02:00:00 19.4 21 Nordeste 28 Este 0 -- -- 60
2020-07-09 01:00:00 18.3 12 Nordeste 23 Norte 0 -- -- 69
2020-07-09 00:00:00 19.3 14 Noroeste 23 Oeste 0 -- -- 64
2020-07-08 23:00:00 18.9 15 Norte 28 Nordeste 0 -- -- 69
2020-07-08 22:00:00 18.9 21 Nordeste 43 Nordeste 1.4 -- -- 68
2020-07-08 21:00:00 24.2 19 Norte 38 Norte 0 -- -- 40
2020-07-08 20:00:00 26.5 23 Norte 34 Noroeste 0 -- -- 37
2020-07-08 19:00:00 28.1 19 Norte 24 Norte 0 -- -- 39
2020-07-08 18:00:00 24.8 14 Nordeste 54 Este 0 -- -- 47
2020-07-08 17:00:00 29.5 10 Nordeste 37 Este 0 -- -- 35
2020-07-08 16:00:00 34 7 Sudoeste 23 Este 0 -- -- 24
2020-07-08 15:00:00 33.5 9 Nordeste 29 Este 0 -- -- 22
2020-07-08 14:00:00 32 9 Este 30 Sudeste 0 -- -- 30
2020-07-08 13:00:00 30 14 Este 24 Este 0 -- -- 33
2020-07-08 12:00:00 28.6 15 Nordeste 24 Nordeste 0 -- -- 35
2020-07-08 11:00:00 25.1 17 Nordeste 33 Nordeste 0 -- -- 41
2020-07-08 10:00:00 22.8 26 Nordeste 35 Nordeste 0 -- -- 45
2020-07-08 09:00:00 20.1 20 Nordeste 28 Nordeste 0 -- -- 55
2020-07-08 08:00:00 17.5 21 Nordeste 29 Nordeste 0 -- -- 62
2020-07-08 07:00:00 17.2 23 Nordeste 30 Nordeste 0 -- -- 64
2020-07-08 06:00:00 17.3 23 Nordeste 30 Nordeste 0 -- -- 63
2020-07-08 05:00:00 17.2 21 Nordeste 26 Nordeste 0 -- -- 61
2020-07-08 04:00:00 17.3 15 Nordeste 20 Nordeste 0 -- -- 57
2020-07-08 03:00:00 19.1 16 Nordeste 22 Nordeste 0 -- -- 49
2020-07-08 02:00:00 21.5 13 Nordeste 21 Nordeste 0 -- -- 39
2020-07-08 01:00:00 22.2 12 Nordeste 14 Nordeste 0 -- -- 37
2020-07-08 00:00:00 22.1 12 Nordeste 13 Nordeste 0 -- -- 39
2020-07-07 23:00:00 24.7 5 Norte 8 Noroeste 0 -- -- 29
2020-07-07 22:00:00 26.7 6 Noroeste 12 Oeste 0 -- -- 29
2020-07-07 21:00:00 30.9 10 Oeste 17 Sudoeste 0 -- -- 22
2020-07-07 20:00:00 32.9 8 Sudoeste 20 Sudoeste 0 -- -- 19
2020-07-07 19:00:00 32.9 15 Sudoeste 28 Sudoeste 0 -- -- 18
2020-07-07 18:00:00 32.8 18 Sudoeste 30 Sudoeste 0 -- -- 21
2020-07-07 17:00:00 32.6 13 Sur 28 Sur 0 -- -- 22
2020-07-07 16:00:00 31.9 12 Sudeste 24 Sudoeste 0 -- -- 27
2020-07-07 15:00:00 31 12 Sur 23 Sur 0 -- -- 29
2020-07-07 14:00:00 29.9 9 Sudeste 23 Sudeste 0 -- -- 30
2020-07-07 13:00:00 28.2 12 Este 22 Este 0 -- -- 29
2020-07-07 12:00:00 26.4 13 Este 23 Nordeste 0 -- -- 31
2020-07-07 11:00:00 23.5 14 Nordeste 36 Nordeste 0 -- -- 33
2020-07-07 10:00:00 20.5 23 Nordeste 36 Nordeste 0 -- -- 36
2020-07-07 09:00:00 17.7 26 Nordeste 34 Nordeste 0 -- -- 42
2020-07-07 08:00:00 14.7 20 Nordeste 26 Nordeste 0 -- -- 51
2020-07-07 07:00:00 13.4 21 Nordeste 27 Nordeste 0 -- -- 54
2020-07-07 06:00:00 13.9 22 Nordeste 29 Nordeste 0 -- -- 57
2020-07-07 05:00:00 14.2 19 Nordeste 29 Nordeste 0 -- -- 62
2020-07-07 04:00:00 14.6 19 Nordeste 31 Nordeste 0 -- -- 67
2020-07-07 03:00:00 15.6 23 Nordeste 35 Nordeste 0 -- -- 67
2020-07-07 02:00:00 17 25 Nordeste 41 Nordeste 0 -- -- 67
2020-07-07 01:00:00 18.8 27 Nordeste 38 Nordeste 0 -- -- 64
2020-07-07 00:00:00 20.7 26 Nordeste 40 Este 0 -- -- 55
2020-07-06 23:00:00 23.1 22 Este 33 Este 0 -- -- 50
2020-07-06 22:00:00 25.9 16 Este 24 Este 0 -- -- 45
2020-07-06 21:00:00 29.8 12 Este 19 Este 0 -- -- 41
2020-07-06 20:00:00 31.6 11 Sudeste 18 Este 0 -- -- 33
2020-07-06 19:00:00 32.3 9 Sudeste 19 Sudeste 0 -- -- 33
2020-07-06 18:00:00 32.9 7 Sur 18 Sudeste 0 -- -- 32
2020-07-06 17:00:00 32.5 5 Este 19 Nordeste 0 -- -- 33
2020-07-06 16:00:00 31.6 6 Este 22 Este 0 -- -- 35
2020-07-06 15:00:00 30.8 11 Nordeste 27 Nordeste 0 -- -- 39
2020-07-06 14:00:00 28.8 18 Nordeste 32 Nordeste 0 -- -- 42
2020-07-06 13:00:00 27.6 20 Este 31 Este 0 -- -- 46
2020-07-06 12:00:00 25.6 21 Nordeste 32 Nordeste 0 -- -- 49
2020-07-06 11:00:00 23.3 25 Nordeste 37 Nordeste 0 -- -- 54
2020-07-06 10:00:00 21.8 24 Nordeste 37 Nordeste 0 -- -- 56
2020-07-06 09:00:00 20.3 20 Nordeste 36 Nordeste 0 -- -- 62
2020-07-06 08:00:00 17.7 20 Nordeste 30 Nordeste 0 -- -- 72
2020-07-06 07:00:00 16.9 21 Nordeste 34 Este 0 -- -- 74
2020-07-06 06:00:00 17.7 23 Nordeste 33 Este 0 -- -- 71
2020-07-06 05:00:00 18.2 21 Nordeste 31 Este 0 -- -- 71
2020-07-06 04:00:00 19.3 21 Nordeste 30 Nordeste 0 -- -- 69
2020-07-06 03:00:00 20.3 17 Este 26 Nordeste 0 -- -- 69
2020-07-06 02:00:00 20.7 15 Nordeste 20 Nordeste 0 -- -- 64
2020-07-06 01:00:00 21.5 10 Norte 16 Norte 0 -- -- 62
2020-07-06 00:00:00 23 12 Nordeste 14 Nordeste 0 -- -- 56
2020-07-05 23:00:00 23.8 12 Norte 15 Norte 0 -- -- 51
2020-07-05 22:00:00 26.2 6 Norte 10 Noroeste 0 -- -- 45
2020-07-05 21:00:00 27.3 9 Noroeste 16 Noroeste 0 -- -- 44
2020-07-05 20:00:00 32.9 7 Nordeste 17 Este 0 -- -- 31
2020-07-05 19:00:00 33.6 10 Nordeste 24 Norte 0 -- -- 28
2020-07-05 18:00:00 33.9 4 Noroeste 21 Este 0 -- -- 27
2020-07-05 17:00:00 32.2 9 Oeste 22 Nordeste 0 -- -- 30
2020-07-05 16:00:00 31.8 6 Este 17 Oeste 0 -- -- 29
2020-07-05 15:00:00 30.6 12 Este 20 Este 0 -- -- 32
2020-07-05 14:00:00 30 8 Este 22 Nordeste 0 -- -- 32
2020-07-05 13:00:00 28.6 13 Nordeste 28 Este 0 -- -- 35
2020-07-05 12:00:00 27 19 Nordeste 29 Este 0 -- -- 39
2020-07-05 11:00:00 24.9 19 Este 27 Nordeste 0 -- -- 44
2020-07-05 10:00:00 22.9 23 Nordeste 32 Nordeste 0 -- -- 49
2020-07-05 09:00:00 20.4 16 Nordeste 21 Nordeste 0 -- -- 55
2020-07-05 08:00:00 17.9 13 Nordeste 21 Nordeste 0 -- -- 62
2020-07-05 07:00:00 15.3 15 Nordeste 20 Nordeste 0 -- -- 70
2020-07-05 06:00:00 15.2 12 Nordeste 17 Nordeste 0 -- -- 71
2020-07-05 05:00:00 15.7 15 Nordeste 18 Nordeste 0 -- -- 68
2020-07-05 04:00:00 16.1 14 Nordeste 17 Nordeste 0 -- -- 64
2020-07-05 03:00:00 16.2 11 Nordeste 19 Nordeste 0 -- -- 62
2020-07-05 02:00:00 18.3 13 Nordeste 24 Nordeste 0 -- -- 55
2020-07-05 01:00:00 19.8 16 Nordeste 31 Nordeste 0 -- -- 51
2020-07-05 00:00:00 21.5 4 Nordeste 9 Este 0 -- -- 44
2020-07-04 23:00:00 22.4 9 Este 10 Este 0 -- -- 43
2020-07-04 22:00:00 23.8 7 Este 12 Este 0 -- -- 40
2020-07-04 21:00:00 28.4 7 Sudeste 16 Sudeste 0 -- -- 34
2020-07-04 20:00:00 29.9 9 Sudeste 18 Sudeste 0 -- -- 29
2020-07-04 19:00:00 31.8 6 Nordeste 18 Sudeste 0 -- -- 25
2020-07-04 18:00:00 30.1 8 Sudeste 24 Nordeste 0 -- -- 27
2020-07-04 17:00:00 29.9 9 Nordeste 18 Este 0 -- -- 26
2020-07-04 16:00:00 29.4 9 Nordeste 17 Este 0 -- -- 27
2020-07-04 15:00:00 28.1 6 Sudeste 18 Este 0 -- -- 30
2020-07-04 14:00:00 27.1 11 Nordeste 20 Nordeste 0 -- -- 30
2020-07-04 13:00:00 25.9 8 Este 17 Este 0 -- -- 35
2020-07-04 12:00:00 23.4 12 Este 23 Este 0 -- -- 40
2020-07-04 11:00:00 21.5 12 Este 20 Este 0 -- -- 45
2020-07-04 10:00:00 19.1 14 Nordeste 21 Nordeste 0 -- -- 54
2020-07-04 09:00:00 15.9 14 Nordeste 18 Norte 0 -- -- 67
2020-07-04 08:00:00 12.8 12 Nordeste 17 Nordeste 0 -- -- 79
2020-07-04 07:00:00 10.1 15 Nordeste 18 Nordeste 0 -- -- 87
2020-07-04 06:00:00 11 11 Nordeste 21 Nordeste 0 -- -- 84
2020-07-04 05:00:00 12.3 17 Nordeste 22 Nordeste 0 -- -- 76
2020-07-04 04:00:00 13 15 Nordeste 21 Nordeste 0 -- -- 67
2020-07-04 03:00:00 14.1 18 Este 20 Este 0 -- -- 54
2020-07-04 02:00:00 14 13 Nordeste 17 Nordeste 0 -- -- 61
2020-07-04 01:00:00 17.5 4 Noroeste 5 Noroeste 0 -- -- 54
2020-07-04 00:00:00 17.1 4 Nordeste 10 Nordeste 0 -- -- 54
2020-07-03 23:00:00 18.4 6 Oeste 14 Noroeste 0 -- -- 51
2020-07-03 22:00:00 22.5 4 Sudeste 7 Sudeste 0 -- -- 39
2020-07-03 21:00:00 25.4 8 Sudeste 15 Sudeste 0 -- -- 33
2020-07-03 20:00:00 26.7 9 Sur 14 Noroeste 0 -- -- 29
2020-07-03 19:00:00 27.6 8 Nordeste 18 Este 0 -- -- 28
2020-07-03 18:00:00 26.9 11 Nordeste 19 Este 0 -- -- 28
2020-07-03 17:00:00 27 8 Noroeste 20 Nordeste 0 -- -- 29
2020-07-03 16:00:00 25.2 9 Este 21 Nordeste 0 -- -- 33
2020-07-03 15:00:00 23.9 10 Noroeste 22 Nordeste 0 -- -- 35
2020-07-03 14:00:00 22.4 7 Este 23 Nordeste 0 -- -- 43
2020-07-03 13:00:00 20.7 12 Este 32 Este 0 -- -- 48
2020-07-03 12:00:00 19.2 17 Nordeste 36 Nordeste 0 -- -- 52
2020-07-03 11:00:00 17.5 18 Nordeste 30 Este 0 -- -- 57
2020-07-03 10:00:00 15.4 20 Nordeste 32 Nordeste 0 -- -- 64
2020-07-03 09:00:00 13.3 19 Nordeste 31 Nordeste 0 -- -- 74
2020-07-03 08:00:00 10.6 14 Nordeste 21 Este 0 -- -- 86
2020-07-03 07:00:00 8.9 17 Nordeste 24 Nordeste 0 -- -- 92
2020-07-03 06:00:00 9.1 16 Nordeste 23 Nordeste 0 -- -- 91
2020-07-03 05:00:00 9.4 15 Nordeste 21 Nordeste 0 -- -- 90
2020-07-03 04:00:00 10.2 17 Este 23 Este 0 -- -- 87
2020-07-03 03:00:00 11.2 16 Este 26 Este 0 -- -- 83
2020-07-03 02:00:00 11.9 12 Este 23 Este 0 -- -- 81
2020-07-03 01:00:00 12.8 11 Este 21 Este 0 -- -- 77
2020-07-03 00:00:00 12.2 8 Norte 13 Nordeste 0 -- -- 68
2020-07-02 23:00:00 14.5 7 Oeste 24 Oeste 0 -- -- 60
2020-07-02 22:00:00 17.4 14 Oeste 30 Oeste 0 -- -- 50
2020-07-02 21:00:00 20.6 16 Oeste 34 Oeste 0 -- -- 44
2020-07-02 20:00:00 22.5 20 Oeste 39 Sudoeste 0 -- -- 40
2020-07-02 19:00:00 22.4 23 Oeste 42 Oeste 0 -- -- 41
2020-07-02 18:00:00 22.7 23 Sudoeste 36 Sudoeste 0 -- -- 34
2020-07-02 17:00:00 22.3 22 Sudoeste 40 Oeste 0 -- -- 34
2020-07-02 16:00:00 21.7 22 Oeste 46 Oeste 0 -- -- 37
2020-07-02 15:00:00 20.8 18 Sudoeste 41 Sudoeste 0 -- -- 46
2020-07-02 14:00:00 19.6 20 Oeste 35 Sudoeste 0 -- -- 53
2020-07-02 13:00:00 19.3 19 Sudoeste 34 Sudoeste 0 -- -- 57
2020-07-02 12:00:00 18 21 Sudoeste 29 Sudoeste 0 -- -- 65
2020-07-02 11:00:00 18.9 15 Sudoeste 24 Sudoeste 0 -- -- 62
2020-07-02 10:00:00 17 16 Oeste 33 Oeste 0 -- -- 66
2020-07-02 09:00:00 15 9 Sudoeste 14 Sudoeste 0 -- -- 81
2020-07-02 08:00:00 13.3 9 Sudoeste 13 Sudoeste 0 -- -- 89
2020-07-02 07:00:00 11.6 6 Sudoeste 9 Sudoeste 0 -- -- 94
2020-07-02 06:00:00 11.5 4 Sudoeste 6 Sudoeste 0 -- -- 92
2020-07-02 05:00:00 12.2 4 Sur 7 Sudeste 0 -- -- 88
2020-07-02 04:00:00 13.5 3 Sudoeste 10 Sudoeste 0 -- -- 81
2020-07-02 03:00:00 13.3 4 Sudoeste 22 Oeste 0 -- -- 83
2020-07-02 02:00:00 13.9 6 Sur 22 Oeste 0 -- -- 82
2020-07-02 01:00:00 16.8 16 Oeste 31 Oeste 0 -- -- 72
2020-07-02 00:00:00 17.6 16 Oeste 24 Oeste 0 -- -- 69
2020-07-01 23:00:00 18.6 11 Oeste 21 Noroeste 0 -- -- 65
2020-07-01 22:00:00 21 14 Oeste 28 Oeste 0 -- -- 58
2020-07-01 21:00:00 24.1 15 Oeste 30 Oeste 0 -- -- 49
2020-07-01 20:00:00 24.9 18 Oeste 40 Sudoeste 0 -- -- 42
2020-07-01 19:00:00 27 19 Oeste 38 Sudoeste 0 -- -- 39
2020-07-01 18:00:00 26.7 24 Oeste 40 Oeste 0 -- -- 38
2020-07-01 17:00:00 26.7 21 Oeste 42 Sudoeste 0 -- -- 41
2020-07-01 16:00:00 26.9 23 Oeste 40 Oeste 0 -- -- 37
2020-07-01 15:00:00 26.2 26 Oeste 42 Sudoeste 0 -- -- 40
2020-07-01 14:00:00 26.1 21 Oeste 37 Oeste 0 -- -- 37
2020-07-01 13:00:00 25.5 20 Sudoeste 34 Sudoeste 0 -- -- 39
2020-07-01 12:00:00 23.7 19 Sudoeste 31 Sudoeste 0 -- -- 52
2020-07-01 11:00:00 22.2 18 Oeste 26 Oeste 0 -- -- 61
2020-07-01 10:00:00 19.2 17 Oeste 23 Sudoeste 0 -- -- 81
2020-07-01 09:00:00 15.6 14 Sudoeste 20 Sudoeste 0 -- -- 100
2020-07-01 08:00:00 15.7 13 Sudoeste 21 Sudoeste 0 -- -- 99
2020-07-01 07:00:00 15.6 11 Sudoeste 17 Oeste 0 -- -- 99
2020-07-01 06:00:00 16 6 Oeste 15 Sudoeste 0 -- -- 98
2020-07-01 05:00:00 16.8 11 Sudoeste 15 Sudoeste 0 -- -- 95
2020-07-01 04:00:00 17.6 9 Oeste 15 Sudoeste 0 -- -- 89
2020-07-01 03:00:00 19 13 Sudoeste 17 Sudoeste 0 -- -- 81
2020-07-01 02:00:00 19.5 6 Sudoeste 8 Sudoeste 0 -- -- 74
2020-07-01 01:00:00 20 5 Sur 6 Oeste 0 -- -- 71
2020-07-01 00:00:00 20.1 3 Nordeste 15 Oeste 0 -- -- 68
2020-06-30 23:00:00 22.3 10 Oeste 16 Noroeste 0 -- -- 59
2020-06-30 22:00:00 25.3 10 Oeste 24 Oeste 0 -- -- 46
2020-06-30 21:00:00 28 17 Noroeste 39 Oeste 0 -- -- 43
2020-06-30 20:00:00 31.2 11 Oeste 26 Oeste 0 -- -- 24
2020-06-30 19:00:00 31.9 17 Sudoeste 31 Sudoeste 0 -- -- 20
2020-06-30 18:00:00 32.2 19 Oeste 33 Sudoeste 0 -- -- 19
2020-06-30 17:00:00 32 14 Sudoeste 30 Sudoeste 0 -- -- 26
2020-06-30 16:00:00 31.5 10 Sudoeste 33 Sur 0 -- -- 27
2020-06-30 15:00:00 30.7 10 Sur 25 Sudeste 0 -- -- 33
2020-06-30 14:00:00 29.7 14 Sudeste 31 Este 0 -- -- 38
2020-06-30 13:00:00 28.4 13 Este 23 Sudeste 0 -- -- 40
2020-06-30 12:00:00 27.2 13 Nordeste 28 Nordeste 0 -- -- 44
2020-06-30 11:00:00 24.3 18 Nordeste 30 Nordeste 0 -- -- 48
2020-06-30 10:00:00 22.2 22 Nordeste 36 Nordeste 0 -- -- 47
2020-06-30 09:00:00 19.9 23 Nordeste 38 Nordeste 0 -- -- 49
2020-06-30 08:00:00 17.1 23 Nordeste 32 Nordeste 0 -- -- 51
2020-06-30 07:00:00 15.2 20 Nordeste 27 Nordeste 0 -- -- 55
2020-06-30 06:00:00 15.1 18 Nordeste 26 Nordeste 0 -- -- 64
2020-06-30 05:00:00 16.1 21 Nordeste 30 Nordeste 0 -- -- 71
2020-06-30 04:00:00 17.2 21 Nordeste 27 Nordeste 0 -- -- 80
2020-06-30 03:00:00 17.5 15 Nordeste 23 Nordeste 0 -- -- 78
2020-06-30 02:00:00 18.8 14 Nordeste 19 Nordeste 0 -- -- 70
2020-06-30 01:00:00 20.4 13 Nordeste 15 Nordeste 0 -- -- 64
2020-06-30 00:00:00 20.6 10 Norte 16 Norte 0 -- -- 67
2020-06-29 23:00:00 21.3 6 Noroeste 13 Oeste 0 -- -- 64
2020-06-29 22:00:00 26.1 5 Sudoeste 8 Sudoeste 0 -- -- 46
2020-06-29 21:00:00 29.1 6 Sudoeste 17 Oeste 0 -- -- 37
2020-06-29 20:00:00 30.1 8 Sudoeste 19 Sudoeste 0 -- -- 34
2020-06-29 19:00:00 30.5 9 Sudoeste 21 Oeste 0 -- -- 33
2020-06-29 18:00:00 30.2 8 Sur 34 Sur 0 -- -- 35
2020-06-29 17:00:00 29.3 8 Nordeste 22 Sudeste 0 -- -- 42
2020-06-29 16:00:00 28.3 9 Sur 19 Sur 0 -- -- 44
2020-06-29 15:00:00 28 9 Este 18 Nordeste 0 -- -- 44
2020-06-29 14:00:00 26.4 4 Oeste 16 Norte 0 -- -- 49
2020-06-29 13:00:00 25.4 8 Norte 16 Este 0 -- -- 50
2020-06-29 12:00:00 24 4 Noroeste 17 Nordeste 0 -- -- 57
2020-06-29 11:00:00 21.9 6 Nordeste 19 Nordeste 0 -- -- 65
2020-06-29 10:00:00 19.6 13 Nordeste 22 Nordeste 0 -- -- 73
2020-06-29 09:00:00 17.9 12 Este 16 Este 0 -- -- 81
2020-06-29 08:00:00 14.9 6 Nordeste 9 Nordeste 0 -- -- 89
2020-06-29 07:00:00 12.9 0 Calma 6 Sur 0 -- -- 97
2020-06-29 06:00:00 13.1 5 Sudeste 9 Nordeste 0 -- -- 96
2020-06-29 05:00:00 13.2 3 Sudeste 6 Sudeste 0 -- -- 94
2020-06-29 04:00:00 13.5 5 Sudeste 9 Sudeste 0 -- -- 92
2020-06-29 03:00:00 14.3 5 Sudeste 10 Oeste 0 -- -- 88
2020-06-29 02:00:00 15.6 7 Sudoeste 10 Oeste 0 -- -- 86
2020-06-29 01:00:00 15.7 4 Sudeste 18 Oeste 0 -- -- 85
2020-06-29 00:00:00 17.7 10 Oeste 23 Oeste 0 -- -- 76
2020-06-28 23:00:00 19.3 15 Oeste 31 Oeste 0 -- -- 69
2020-06-28 22:00:00 21 16 Oeste 32 Oeste 0 -- -- 62
2020-06-28 21:00:00 23.7 20 Oeste 33 Sudoeste 0 -- -- 54
2020-06-28 20:00:00 25.6 18 Oeste 32 Oeste 0 -- -- 50
2020-06-28 19:00:00 26.4 20 Oeste 35 Oeste 0 -- -- 48
2020-06-28 18:00:00 27.3 19 Sudoeste 42 Oeste 0 -- -- 45
2020-06-28 17:00:00 27 15 Oeste 31 Sudoeste 0 -- -- 46
2020-06-28 16:00:00 27.2 18 Sudoeste 33 Sudoeste 0 -- -- 43
2020-06-28 15:00:00 25.8 12 Sudoeste 27 Sudoeste 0 -- -- 47
2020-06-28 14:00:00 25 12 Sudoeste 24 Sudoeste 0 -- -- 48
2020-06-28 13:00:00 25.7 5 Norte 20 Oeste 0 -- -- 46
2020-06-28 12:00:00 23.8 9 Noroeste 15 Noroeste 0 -- -- 52
2020-06-28 11:00:00 21.7 3 Oeste 13 Oeste 0 -- -- 61
2020-06-28 10:00:00 18.4 5 Oeste 12 Oeste 0 -- -- 73
2020-06-28 09:00:00 17.8 3 Sur 7 Sudeste 0 -- -- 75
2020-06-28 08:00:00 15.1 4 Noroeste 7 Sur 0 -- -- 86
2020-06-28 07:00:00 12.4 5 Sur 15 Oeste 0 -- -- 95
2020-06-28 06:00:00 12.9 6 Sudoeste 13 Oeste 0 -- -- 97
2020-06-28 05:00:00 12.8 8 Sur 13 Oeste 0 -- -- 96
2020-06-28 04:00:00 13.8 8 Sudoeste 14 Oeste 0 -- -- 92
2020-06-28 03:00:00 14 5 Sudoeste 17 Oeste 0 -- -- 93
2020-06-28 02:00:00 15.3 11 Oeste 19 Oeste 0 -- -- 89
2020-06-28 01:00:00 15.3 9 Sudoeste 14 Sudoeste 0 -- -- 89
2020-06-28 00:00:00 16.1 8 Sudoeste 19 Oeste 0 -- -- 85
2020-06-27 23:00:00 17.9 10 Oeste 19 Oeste 0 -- -- 78
2020-06-27 22:00:00 19.9 12 Oeste 22 Oeste 0 -- -- 70
2020-06-27 21:00:00 22.4 12 Oeste 28 Oeste 0 -- -- 59
2020-06-27 20:00:00 22.6 21 Oeste 29 Sudoeste 0 -- -- 58
2020-06-27 19:00:00 22.1 17 Oeste 27 Oeste 0 -- -- 59
2020-06-27 18:00:00 22.1 17 Oeste 29 Oeste 0 -- -- 60
2020-06-27 17:00:00 23.2 18 Oeste 33 Sudoeste 0 -- -- 56
2020-06-27 16:00:00 22.9 15 Oeste 35 Sudoeste 0 -- -- 57
2020-06-27 15:00:00 21.9 17 Oeste 30 Oeste 0 -- -- 60
2020-06-27 14:00:00 19.7 14 Sudoeste 27 Sudoeste 0 -- -- 68
2020-06-27 13:00:00 18.3 12 Sudoeste 23 Sudoeste 0 -- -- 72
2020-06-27 12:00:00 16.7 14 Sudoeste 25 Sudoeste 0 -- -- 80
2020-06-27 11:00:00 17.6 16 Sudoeste 26 Sudoeste 0 -- -- 76
2020-06-27 10:00:00 16.1 16 Sudoeste 24 Sudoeste 0 -- -- 82
2020-06-27 09:00:00 16.2 15 Sudoeste 22 Sudoeste 0 -- -- 83
2020-06-27 08:00:00 14.1 8 Sudoeste 17 Sudoeste 0 -- -- 93
2020-06-27 07:00:00 13.9 10 Sudoeste 15 Sudoeste 0 -- -- 92
2020-06-27 06:00:00 13.8 5 Sudoeste 18 Sudoeste 0 -- -- 93
2020-06-27 05:00:00 13.4 8 Sudoeste 17 Sudoeste 0 -- -- 93
2020-06-27 04:00:00 13.3 8 Sudoeste 17 Oeste 0 -- -- 92
2020-06-27 03:00:00 13.8 12 Sudoeste 23 Oeste 0 -- -- 90
2020-06-27 02:00:00 14.1 8 Sudoeste 23 Oeste 0 -- -- 86
2020-06-27 01:00:00 15 16 Sudoeste 23 Sudoeste 0 -- -- 81
2020-06-27 00:00:00 15.3 5 Sudoeste 19 Oeste 0 -- -- 80
2020-06-26 23:00:00 17 12 Oeste 26 Oeste 0 -- -- 74
2020-06-26 22:00:00 18.7 11 Oeste 31 Oeste 0 -- -- 67
2020-06-26 21:00:00 20.3 14 Oeste 33 Oeste 0 -- -- 60
2020-06-26 20:00:00 21.6 22 Oeste 34 Sudoeste 0 -- -- 53
2020-06-26 19:00:00 23.8 19 Sudoeste 35 Sudoeste 0 -- -- 45
2020-06-26 18:00:00 23.7 22 Oeste 35 Sudoeste 0 -- -- 44
2020-06-26 17:00:00 22.5 22 Oeste 35 Oeste 0 -- -- 44
2020-06-26 16:00:00 22.8 24 Sudoeste 38 Sudoeste 0 -- -- 38
2020-06-26 15:00:00 22.8 23 Sudoeste 39 Sudoeste 0 -- -- 43
2020-06-26 14:00:00 21.1 22 Sudoeste 35 Sudoeste 0 -- -- 51
2020-06-26 13:00:00 20.2 15 Sudoeste 27 Sudoeste 0 -- -- 56
2020-06-26 12:00:00 18.2 14 Sudoeste 31 Sudoeste 0 -- -- 69
2020-06-26 11:00:00 16.2 19 Oeste 29 Sudoeste 0 -- -- 77
2020-06-26 10:00:00 16.1 12 Sudoeste 20 Sudoeste 0 -- -- 78
2020-06-26 09:00:00 13.2 13 Oeste 19 Oeste 0 -- -- 98
2020-06-26 08:00:00 12.3 10 Sudoeste 15 Sudoeste 0 -- -- 100
2020-06-26 07:00:00 12.3 12 Sudoeste 22 Sudoeste 0 -- -- 99
2020-06-26 06:00:00 12.6 13 Sudoeste 20 Sudoeste 0 -- -- 98
2020-06-26 05:00:00 12.9 9 Sudoeste 13 Sudoeste 0 -- -- 97
2020-06-26 04:00:00 13.4 4 Sudoeste 12 Sudoeste 0 -- -- 94
2020-06-26 03:00:00 14.2 11 Sudoeste 15 Sudoeste 0 -- -- 90
2020-06-26 02:00:00 16 11 Sudoeste 13 Sudoeste 0 -- -- 78
2020-06-26 01:00:00 17.6 8 Sudoeste 12 Sudoeste 0 -- -- 70
2020-06-26 00:00:00 18.6 6 Oeste 11 Oeste 0 -- -- 66
2020-06-25 23:00:00 19.5 9 Noroeste 17 Oeste 0 -- -- 63
2020-06-25 22:00:00 22.9 9 Oeste 20 Oeste 0 -- -- 47
2020-06-25 21:00:00 26 15 Oeste 30 Oeste 0 -- -- 40
2020-06-25 20:00:00 26.4 20 Sudoeste 37 Sudoeste 0 -- -- 42
2020-06-25 19:00:00 28.4 20 Sudoeste 38 Sudoeste 0 -- -- 34
2020-06-25 18:00:00 28 21 Sudoeste 39 Sudoeste 0 -- -- 38
2020-06-25 17:00:00 28.8 24 Sudoeste 40 Oeste 0 -- -- 36
2020-06-25 16:00:00 27.9 22 Sudoeste 37 Oeste 0 -- -- 37
2020-06-25 15:00:00 27.3 18 Sudoeste 40 Sudoeste 0 -- -- 39
2020-06-25 14:00:00 26.9 16 Sudoeste 33 Sudoeste 0 -- -- 38
2020-06-25 13:00:00 25.3 13 Oeste 26 Sur 0 -- -- 52
2020-06-25 12:00:00 24 12 Sur 21 Sur 0 -- -- 57
2020-06-25 11:00:00 23.3 7 Sudeste 19 Nordeste 0 -- -- 58
2020-06-25 10:00:00 21.2 13 Este 20 Este 0 -- -- 64
2020-06-25 09:00:00 20.5 4 Nordeste 7 Noroeste 0 -- -- 64
2020-06-25 08:00:00 16.3 8 Norte 14 Norte 0 -- -- 79
2020-06-25 07:00:00 14 14 Nordeste 17 Nordeste 0 -- -- 88
2020-06-25 06:00:00 15.2 12 Nordeste 18 Nordeste 0 -- -- 84
2020-06-25 05:00:00 16.2 14 Nordeste 24 Nordeste 0 -- -- 78
2020-06-25 04:00:00 15.9 18 Este 24 Este 0 -- -- 82
2020-06-25 03:00:00 15.3 17 Este 22 Este 0 -- -- 86
2020-06-25 02:00:00 15.5 14 Este 16 Nordeste 0 -- -- 81
2020-06-25 01:00:00 15.8 10 Nordeste 20 Nordeste 0 -- -- 81
2020-06-25 00:00:00 16.8 18 Nordeste 22 Nordeste 0 -- -- 77
2020-06-24 23:00:00 18.3 15 Nordeste 30 Norte 0 -- -- 72
2020-06-24 22:00:00 19.5 17 Norte 26 Norte 0 -- -- 68
2020-06-24 21:00:00 20.4 11 Norte 21 Noroeste 0 -- -- 61
2020-06-24 20:00:00 19.6 17 Nordeste 27 Sudeste 0 -- -- 67
2020-06-24 19:00:00 20 23 Sudeste 50 Sudeste 0.2 -- -- 66
2020-06-24 18:00:00 20.5 28 Sudeste 61 Sudeste 0 -- -- 60
2020-06-24 17:00:00 29 18 Sudeste 54 Este 0 -- -- 40
2020-06-24 16:00:00 30.2 14 Este 23 Este 0 -- -- 39
2020-06-24 15:00:00 29.5 13 Sur 24 Sudeste 0 -- -- 39
2020-06-24 14:00:00 27.7 13 Sudeste 22 Sudeste 0 -- -- 48
2020-06-24 13:00:00 21.9 11 Sur 35 Sur 0 -- -- 68
2020-06-24 12:00:00 20.9 8 Sur 16 Sudoeste 0.2 -- -- 75
2020-06-24 11:00:00 26.6 7 Este 17 Este 0 -- -- 39
2020-06-24 10:00:00 21.9 13 Nordeste 18 Nordeste 0 -- -- 55
2020-06-24 09:00:00 21.8 17 Nordeste 22 Nordeste 0 -- -- 54
2020-06-24 08:00:00 18.2 15 Nordeste 18 Nordeste 0 -- -- 60
2020-06-24 07:00:00 16 13 Norte 14 Norte 0 -- -- 64
2020-06-24 06:00:00 18.2 14 Nordeste 22 Nordeste 0 -- -- 57
2020-06-24 05:00:00 18.4 17 Nordeste 18 Nordeste 0 -- -- 52
2020-06-24 04:00:00 18.9 13 Nordeste 15 Nordeste 0 -- -- 49
2020-06-24 03:00:00 19.1 13 Nordeste 18 Norte 0 -- -- 49
2020-06-24 02:00:00 20.4 10 Nordeste 17 Norte 0 -- -- 44
2020-06-24 01:00:00 21 6 Norte 19 Noroeste 0 -- -- 43
2020-06-24 00:00:00 21.5 6 Nordeste 18 Este 0 -- -- 44
2020-06-23 23:00:00 23.5 5 Norte 9 Noroeste 0 -- -- 38
2020-06-23 22:00:00 26.3 5 Norte 36 Noroeste 0 -- -- 35
2020-06-23 21:00:00 28.8 18 Noroeste 31 Sudoeste 0 -- -- 28
2020-06-23 20:00:00 31.6 5 Sudoeste 13 Oeste 0 -- -- 24
2020-06-23 19:00:00 34.4 5 Oeste 22 Sudoeste 0 -- -- 21
2020-06-23 18:00:00 34.4 5 Sudoeste 24 Sudoeste 0 -- -- 23
2020-06-23 17:00:00 33.2 11 Sudoeste 25 Sur 0 -- -- 26
2020-06-23 16:00:00 32.8 13 Sudoeste 24 Sudoeste 0 -- -- 25
2020-06-23 15:00:00 32.2 8 Sur 20 Sur 0 -- -- 26
2020-06-23 14:00:00 31.2 8 Sur 19 Este 0 -- -- 29
2020-06-23 13:00:00 30.6 9 Nordeste 18 Norte 0 -- -- 33
2020-06-23 12:00:00 28.5 10 Este 20 Este 0 -- -- 38
2020-06-23 11:00:00 26.3 14 Nordeste 22 Norte 0 -- -- 41
2020-06-23 10:00:00 23.2 16 Nordeste 26 Nordeste 0 -- -- 45
2020-06-23 09:00:00 20.8 13 Nordeste 22 Nordeste 0 -- -- 55
2020-06-23 08:00:00 17.2 16 Nordeste 24 Nordeste 0 -- -- 67
2020-06-23 07:00:00 16 18 Nordeste 26 Nordeste 0 -- -- 72
2020-06-23 06:00:00 15.6 15 Nordeste 20 Nordeste 0 -- -- 74
2020-06-23 05:00:00 15.8 17 Nordeste 19 Nordeste 0 -- -- 73
2020-06-23 04:00:00 17 15 Nordeste 26 Nordeste 0 -- -- 69
2020-06-23 03:00:00 17.8 17 Nordeste 24 Este 0 -- -- 64
2020-06-23 02:00:00 19.3 18 Nordeste 24 Nordeste 0 -- -- 57
2020-06-23 01:00:00 20.2 17 Nordeste 23 Nordeste 0 -- -- 46
2020-06-23 00:00:00 20.2 14 Nordeste 22 Nordeste 0 -- -- 44
2020-06-22 23:00:00 21.3 14 Nordeste 17 Nordeste 0 -- -- 42
2020-06-22 22:00:00 23.8 10 Norte 12 Nordeste 0 -- -- 38
2020-06-22 21:00:00 29 10 Nordeste 14 Nordeste 0 -- -- 29
2020-06-22 20:00:00 30.8 7 Nordeste 18 Este 0 -- -- 25
2020-06-22 19:00:00 31.1 11 Nordeste 19 Nordeste 0 -- -- 24
2020-06-22 18:00:00 30.9 8 Este 22 Nordeste 0 -- -- 23
2020-06-22 17:00:00 30.7 11 Nordeste 37 Este 0 -- -- 26
2020-06-22 16:00:00 29.3 14 Este 29 Este 0 -- -- 26
2020-06-22 15:00:00 28.4 14 Nordeste 28 Este 0 -- -- 33
2020-06-22 14:00:00 27 17 Este 31 Nordeste 0 -- -- 38
2020-06-22 13:00:00 25.4 20 Nordeste 36 Este 0 -- -- 47
2020-06-22 12:00:00 23.5 25 Este 37 Este 0 -- -- 54
2020-06-22 11:00:00 21.8 20 Nordeste 33 Este 0 -- -- 59
2020-06-22 10:00:00 19.7 23 Este 33 Este 0 -- -- 66
2020-06-22 09:00:00 17.8 25 Nordeste 36 Nordeste 0 -- -- 72
2020-06-22 08:00:00 15.5 18 Nordeste 28 Nordeste 0 -- -- 81
2020-06-22 07:00:00 13.9 24 Nordeste 34 Nordeste 0 -- -- 88
2020-06-22 06:00:00 14 25 Nordeste 37 Nordeste 0 -- -- 88
2020-06-22 05:00:00 14.7 21 Nordeste 35 Nordeste 0 -- -- 84
2020-06-22 04:00:00 15.8 21 Nordeste 33 Nordeste 0 -- -- 79
2020-06-22 03:00:00 16.4 21 Nordeste 31 Nordeste 0 -- -- 76
2020-06-22 02:00:00 17.4 22 Nordeste 33 Nordeste 0 -- -- 73
2020-06-22 01:00:00 17.5 18 Nordeste 25 Nordeste 0 -- -- 73
2020-06-22 00:00:00 17 6 Nordeste 10 Norte 0 -- -- 75
2020-06-21 23:00:00 18.1 6 Norte 15 Oeste 0 -- -- 71
2020-06-21 22:00:00 21.9 12 Oeste 21 Oeste 0 -- -- 58
2020-06-21 21:00:00 25.2 15 Oeste 27 Oeste 0 -- -- 50
2020-06-21 20:00:00 26.9 13 Oeste 24 Oeste 0 -- -- 46
2020-06-21 19:00:00 27.3 13 Sudoeste 26 Sudoeste 0 -- -- 44
2020-06-21 18:00:00 26.4 16 Oeste 28 Sudoeste 0 -- -- 41
2020-06-21 17:00:00 28.3 11 Sudoeste 25 Sudoeste 0 -- -- 36
2020-06-21 16:00:00 27.2 8 Oeste 19 Noroeste 0 -- -- 36
2020-06-21 15:00:00 26.7 10 Noroeste 20 Noroeste 0 -- -- 35
2020-06-21 14:00:00 25.3 9 Noroeste 18 Sudoeste 0 -- -- 36
2020-06-21 13:00:00 23 10 Sudoeste 18 Sudoeste 0 -- -- 43
2020-06-21 12:00:00 21.5 6 Sur 21 Oeste 0 -- -- 50
2020-06-21 11:00:00 19.4 8 Oeste 13 Sudoeste 0 -- -- 55
2020-06-21 10:00:00 18.9 4 Noroeste 10 Oeste 0 -- -- 52
2020-06-21 09:00:00 13.6 8 Sudoeste 13 Oeste 0 -- -- 74
2020-06-21 08:00:00 12.6 2 Sur 4 Sur 0 -- -- 78
2020-06-21 07:00:00 9.6 5 Sur 6 Sur 0 -- -- 91
2020-06-21 06:00:00 8.9 4 Sur 7 Sudeste 0 -- -- 94
2020-06-21 05:00:00 10.2 3 Sudoeste 10 Sudoeste 0 -- -- 94
2020-06-21 04:00:00 12.3 8 Sudoeste 12 Sudoeste 0 -- -- 83
2020-06-21 03:00:00 12.3 9 Sudoeste 17 Sudoeste 0 -- -- 82
2020-06-21 02:00:00 14.9 10 Oeste 18 Oeste 0 -- -- 74
2020-06-21 01:00:00 15.7 11 Oeste 18 Oeste 0 -- -- 72
2020-06-21 00:00:00 16.9 9 Oeste 23 Oeste 0 -- -- 68
2020-06-20 23:00:00 17.8 15 Oeste 21 Oeste 0 -- -- 59
2020-06-20 22:00:00 20.6 13 Oeste 24 Oeste 0 -- -- 43
2020-06-20 21:00:00 23.6 18 Sudoeste 33 Oeste 0 -- -- 29
2020-06-20 20:00:00 25.1 24 Sudoeste 36 Sudoeste 0 -- -- 35
2020-06-20 19:00:00 26.4 19 Sudoeste 34 Sudoeste 0 -- -- 31
2020-06-20 18:00:00 26.3 18 Oeste 38 Sudoeste 0 -- -- 30
2020-06-20 17:00:00 26.4 13 Oeste 34 Oeste 0 -- -- 35
2020-06-20 16:00:00 26.1 17 Sudoeste 31 Sudoeste 0 -- -- 34
2020-06-20 15:00:00 24.5 17 Oeste 29 Sudoeste 0 -- -- 39
2020-06-20 14:00:00 23.5 14 Sudoeste 33 Sur 0 -- -- 40
2020-06-20 13:00:00 22.7 12 Sudoeste 21 Sudoeste 0 -- -- 42
2020-06-20 12:00:00 21.2 8 Sudoeste 17 Sudoeste 0 -- -- 46
2020-06-20 11:00:00 20.6 5 Sur 15 Sudeste 0 -- -- 53
2020-06-20 10:00:00 19 5 Este 10 Este 0 -- -- 57
2020-06-20 09:00:00 17.3 4 Este 7 Este 0 -- -- 62
2020-06-20 08:00:00 14.1 4 Este 9 Nordeste 0 -- -- 74
2020-06-20 07:00:00 8.6 4 Nordeste 6 Este 0 -- -- 89
2020-06-20 06:00:00 10.8 4 Sudeste 12 Este 0 -- -- 81
2020-06-20 05:00:00 9.3 10 Este 11 Nordeste 0 -- -- 88
2020-06-20 04:00:00 12.1 3 Sudoeste 8 Sudoeste 0 -- -- 77
2020-06-20 03:00:00 11.5 4 Sur 11 Oeste 0 -- -- 77
2020-06-20 02:00:00 14.2 10 Oeste 15 Oeste 0 -- -- 68
2020-06-20 01:00:00 15.6 8 Oeste 12 Oeste 0 -- -- 59
2020-06-20 00:00:00 15.2 6 Noroeste 11 Noroeste 0 -- -- 60
2020-06-19 23:00:00 15.2 8 Noroeste 15 Noroeste 0 -- -- 63
2020-06-19 22:00:00 19.4 8 Noroeste 27 Oeste 0 -- -- 48
2020-06-19 21:00:00 22.5 14 Noroeste 28 Noroeste 0 -- -- 39
2020-06-19 20:00:00 24 16 Oeste 33 Oeste 0 -- -- 35
2020-06-19 19:00:00 24.1 20 Oeste 38 Sudoeste 0 -- -- 29
2020-06-19 18:00:00 24.3 18 Sudoeste 32 Sudoeste 0 -- -- 32
2020-06-19 17:00:00 24.1 17 Sudoeste 36 Oeste 0 -- -- 32
2020-06-19 16:00:00 23.4 14 Sudoeste 29 Sudoeste 0 -- -- 33
2020-06-19 15:00:00 22.5 12 Oeste 27 Sudoeste 0 -- -- 32
2020-06-19 14:00:00 20.8 14 Sudoeste 26 Sudoeste 0 -- -- 33
2020-06-19 13:00:00 19.6 12 Sudoeste 22 Sudoeste 0 -- -- 41
2020-06-19 12:00:00 18.3 9 Sudoeste 18 Sudoeste 0 -- -- 57
2020-06-19 11:00:00 17.9 5 Sudoeste 14 Sudoeste 0 -- -- 60
2020-06-19 10:00:00 17.3 4 Este 11 Este 0 -- -- 62
2020-06-19 09:00:00 14.5 6 Este 10 Este 0 -- -- 73
2020-06-19 08:00:00 12.7 0 Calma 5 Sudeste 0 -- -- 78
2020-06-19 07:00:00 6.4 0 Calma 3 Oeste 0 -- -- 94
2020-06-19 06:00:00 8.6 0 Calma 6 Este 0 -- -- 87
2020-06-19 05:00:00 9.2 4 Este 5 Este 0 -- -- 80
2020-06-19 04:00:00 8.4 0 Calma 16 Nordeste 0 -- -- 84
2020-06-19 03:00:00 9.8 4 Sudoeste 6 Oeste 0 -- -- 79
2020-06-19 02:00:00 11 6 Oeste 9 Oeste 0 -- -- 74
2020-06-19 01:00:00 11.6 7 Oeste 12 Oeste 0 -- -- 71
2020-06-19 00:00:00 12.4 8 Noroeste 10 Noroeste 0 -- -- 68
2020-06-18 23:00:00 14.7 7 Oeste 14 Oeste 0 -- -- 59
2020-06-18 22:00:00 17.1 9 Noroeste 23 Oeste 0 -- -- 49
2020-06-18 21:00:00 20.9 15 Oeste 27 Oeste 0 -- -- 37
2020-06-18 20:00:00 22 15 Sudoeste 28 Oeste 0 -- -- 34
2020-06-18 19:00:00 23.5 12 Oeste 28 Sudoeste 0 -- -- 34
2020-06-18 18:00:00 23.3 11 Oeste 29 Oeste 0 -- -- 35
2020-06-18 17:00:00 22.1 15 Sudoeste 28 Sudoeste 0 -- -- 39
2020-06-18 16:00:00 22.4 13 Sudoeste 27 Sur 0 -- -- 37
2020-06-18 15:00:00 21.3 11 Sudoeste 25 Sudoeste 0 -- -- 43
2020-06-18 14:00:00 20.6 4 Noroeste 16 Oeste 0 -- -- 48
2020-06-18 13:00:00 19.3 7 Sudoeste 15 Sudoeste 0 -- -- 51
2020-06-18 12:00:00 18.5 9 Sur 15 Sudoeste 0 -- -- 54
2020-06-18 11:00:00 17.8 4 Noroeste 12 Nordeste 0 -- -- 59
2020-06-18 10:00:00 15.2 9 Nordeste 14 Nordeste 0 -- -- 67
2020-06-18 09:00:00 13.4 7 Nordeste 10 Nordeste 0 -- -- 74
2020-06-18 08:00:00 10.9 6 Nordeste 13 Este 0 -- -- 82
2020-06-18 07:00:00 7.7 4 Nordeste 5 Nordeste 0 -- -- 90
2020-06-18 06:00:00 7.4 0 Calma 7 Nordeste 0 -- -- 91
2020-06-18 05:00:00 7.7 3 Nordeste 13 Nordeste 0 -- -- 89
2020-06-18 04:00:00 8.3 12 Nordeste 14 Nordeste 0 -- -- 91
2020-06-18 03:00:00 10.3 9 Este 11 Este 0 -- -- 82
2020-06-18 02:00:00 10.9 4 Este 5 Norte 0 -- -- 76
2020-06-18 01:00:00 11.5 6 Nordeste 8 Noroeste 0 -- -- 76
2020-06-18 00:00:00 12.6 3 Oeste 9 Oeste 0 -- -- 72
2020-06-17 23:00:00 13.8 6 Noroeste 14 Oeste 0 -- -- 68
2020-06-17 22:00:00 15.1 7 Oeste 23 Oeste 0 -- -- 62
2020-06-17 21:00:00 18.1 15 Noroeste 28 Oeste 0 -- -- 53
2020-06-17 20:00:00 18.3 11 Sudoeste 32 Oeste 0 -- -- 47
2020-06-17 19:00:00 19.8 9 Sudoeste 26 Sudoeste 0 -- -- 41
2020-06-17 18:00:00 19.6 10 Oeste 25 Oeste 0 -- -- 43
2020-06-17 17:00:00 19.6 7 Noroeste 20 Sudoeste 0 -- -- 44
2020-06-17 16:00:00 19.7 8 Oeste 24 Oeste 0 -- -- 44
2020-06-17 15:00:00 19.7 6 Noroeste 24 Sudoeste 0 -- -- 44
2020-06-17 14:00:00 19.2 9 Oeste 20 Sudoeste 0 -- -- 48
2020-06-17 13:00:00 16.7 8 Sudoeste 18 Este 0 -- -- 53
2020-06-17 12:00:00 17.7 8 Este 17 Sudeste 0 -- -- 53
2020-06-17 11:00:00 16.4 5 Sur 17 Sudoeste 0 -- -- 60
2020-06-17 10:00:00 14.1 8 Sur 14 Sur 0 -- -- 69
2020-06-17 09:00:00 13.2 2 Noroeste 5 Noroeste 0 -- -- 73
2020-06-17 08:00:00 10.8 2 Oeste 3 Oeste 0 -- -- 84
2020-06-17 07:00:00 6.1 0 Calma 6 Sudoeste 0 -- -- 100
2020-06-17 06:00:00 7 4 Sudoeste 8 Sudoeste 0 -- -- 97
2020-06-17 05:00:00 7.7 6 Oeste 10 Oeste 0 -- -- 94
2020-06-17 04:00:00 7.3 7 Oeste 10 Sudoeste 0 -- -- 94
2020-06-17 03:00:00 9.5 6 Sudoeste 8 Sudoeste 0 -- -- 85
2020-06-17 02:00:00 9.8 3 Sudoeste 12 Sudoeste 0 -- -- 84
2020-06-17 01:00:00 11.1 8 Sudoeste 23 Oeste 0 -- -- 79
2020-06-17 00:00:00 12 10 Oeste 20 Oeste 0 -- -- 74
2020-06-16 23:00:00 12.4 9 Noroeste 16 Oeste 0 -- -- 69
2020-06-16 22:00:00 13.8 12 Oeste 26 Oeste 0 -- -- 60
2020-06-16 21:00:00 16.9 15 Oeste 31 Oeste 0 -- -- 54
2020-06-16 20:00:00 18.1 22 Noroeste 39 Noroeste 0 -- -- 49
2020-06-16 19:00:00 18.4 21 Oeste 39 Oeste 0 -- -- 51
2020-06-16 18:00:00 18.3 21 Oeste 44 Sudoeste 0 -- -- 56
2020-06-16 17:00:00 17.7 23 Oeste 40 Oeste 0 -- -- 59
2020-06-16 16:00:00 17.2 25 Oeste 45 Sudoeste 0 -- -- 59
2020-06-16 15:00:00 17.7 26 Sudoeste 45 Sudoeste 0 -- -- 62
2020-06-16 14:00:00 15.8 19 Sudoeste 30 Sudoeste 0 -- -- 70
2020-06-16 13:00:00 14 19 Oeste 30 Oeste 0.2 -- -- 85
2020-06-16 12:00:00 15.5 19 Sudoeste 29 Oeste 0 -- -- 68
2020-06-16 11:00:00 14.5 11 Oeste 27 Oeste 0 -- -- 72
2020-06-16 10:00:00 14.1 14 Sudoeste 21 Oeste 0 -- -- 74
2020-06-16 09:00:00 12.5 8 Sudoeste 16 Oeste 0 -- -- 83
2020-06-16 08:00:00 9.2 10 Sudoeste 19 Sudoeste 0 -- -- 96
2020-06-16 07:00:00 8.3 11 Sudoeste 14 Sudoeste 0 -- -- 96
2020-06-16 06:00:00 8.3 9 Sudoeste 12 Sudoeste 0 -- -- 94
2020-06-16 05:00:00 9.7 9 Sudoeste 12 Sudoeste 0 -- -- 90
2020-06-16 04:00:00 10.1 6 Oeste 9 Sudoeste 0 -- -- 90
2020-06-16 03:00:00 10.3 3 Sur 8 Sudoeste 0 -- -- 90
2020-06-16 02:00:00 10.6 3 Sudoeste 14 Sudoeste 0 -- -- 88
2020-06-16 01:00:00 11.9 8 Oeste 17 Oeste 0 -- -- 81
2020-06-16 00:00:00 12 8 Oeste 17 Sudoeste 0 -- -- 83
2020-06-15 23:00:00 12.8 11 Oeste 24 Oeste 0 -- -- 77
2020-06-15 22:00:00 13.6 13 Oeste 33 Oeste 0 -- -- 71
2020-06-15 21:00:00 14.4 17 Oeste 32 Sudoeste 0 -- -- 66
2020-06-15 20:00:00 15.3 16 Oeste 38 Oeste 0 -- -- 60
2020-06-15 19:00:00 16.3 22 Oeste 38 Oeste 0 -- -- 60
2020-06-15 18:00:00 16.5 26 Oeste 40 Sudoeste 0 -- -- 58
2020-06-15 17:00:00 17.7 18 Oeste 36 Sudoeste 0 -- -- 56
2020-06-15 16:00:00 17.1 20 Oeste 33 Sudoeste 0 -- -- 55
2020-06-15 15:00:00 18 19 Oeste 32 Oeste 0 -- -- 52
2020-06-15 14:00:00 18.1 14 Sudoeste 30 Sudoeste 0 -- -- 53
2020-06-15 13:00:00 16.8 13 Oeste 27 Oeste 0 -- -- 55
2020-06-15 12:00:00 16.1 11 Oeste 22 Oeste 0 -- -- 57
2020-06-15 11:00:00 15.4 11 Oeste 21 Sudoeste 0 -- -- 63
2020-06-15 10:00:00 13.6 13 Oeste 23 Oeste 0 -- -- 73
2020-06-15 09:00:00 11.9 7 Oeste 13 Sudoeste 0 -- -- 80
2020-06-15 08:00:00 9.9 7 Sudoeste 12 Sudoeste 0 -- -- 88
2020-06-15 07:00:00 7.7 4 Sudoeste 9 Oeste 0 -- -- 94
2020-06-15 06:00:00 8.4 6 Oeste 9 Oeste 0 -- -- 92
2020-06-15 05:00:00 8.1 0 Calma 11 Sur 0 -- -- 93
2020-06-15 04:00:00 8.1 4 Sur 12 Oeste 0 -- -- 95
2020-06-15 03:00:00 9 8 Sudoeste 12 Sudoeste 0 -- -- 92
2020-06-15 02:00:00 9.6 5 Sudoeste 18 Oeste 0 -- -- 89
2020-06-15 01:00:00 11.2 10 Oeste 18 Oeste 0 -- -- 83
2020-06-15 00:00:00 11.8 7 Oeste 16 Oeste 0 -- -- 82
2020-06-14 23:00:00 12.8 13 Oeste 20 Noroeste 0 -- -- 78
2020-06-14 22:00:00 13.4 12 Oeste 24 Oeste 0 -- -- 74
2020-06-14 21:00:00 14.4 13 Oeste 26 Oeste 0 -- -- 69
2020-06-14 20:00:00 15.4 12 Oeste 27 Noroeste 0 -- -- 67
2020-06-14 19:00:00 16 18 Oeste 28 Oeste 0 -- -- 61
2020-06-14 18:00:00 16.9 15 Oeste 31 Oeste 0 -- -- 56
2020-06-14 17:00:00 16.8 17 Oeste 29 Oeste 0 -- -- 56
2020-06-14 16:00:00 16.8 12 Oeste 26 Sudoeste 0 -- -- 57
2020-06-14 15:00:00 15.9 18 Sudoeste 31 Oeste 0 -- -- 55
2020-06-14 14:00:00 16.1 13 Oeste 32 Sudoeste 0 -- -- 53
2020-06-14 13:00:00 15.7 19 Oeste 30 Oeste 0 -- -- 55
2020-06-14 12:00:00 15.5 15 Oeste 27 Sudoeste 0 -- -- 54
2020-06-14 11:00:00 14 11 Sudoeste 22 Sudoeste 0 -- -- 61
2020-06-14 10:00:00 12.1 12 Sudoeste 18 Sudoeste 0 -- -- 73
2020-06-14 09:00:00 9.7 6 Sudoeste 9 Sudoeste 0 -- -- 81
2020-06-14 08:00:00 8.1 4 Sudoeste 7 Sudoeste 0 -- -- 86
2020-06-14 07:00:00 6.7 5 Sudoeste 7 Sudoeste 0 -- -- 92
2020-06-14 06:00:00 6.8 5 Sudoeste 7 Sudoeste 0 -- -- 93
2020-06-14 05:00:00 7.2 4 Sudoeste 10 Sudoeste 0 -- -- 93
2020-06-14 04:00:00 6.6 10 Sudoeste 12 Sudoeste 0 -- -- 93
2020-06-14 03:00:00 7.6 8 Sudoeste 12 Sudoeste 0 -- -- 90
2020-06-14 02:00:00 8.8 8 Sudoeste 12 Sudoeste 0 -- -- 86
2020-06-14 01:00:00 8.7 4 Oeste 12 Oeste 0 -- -- 87
2020-06-14 00:00:00 10 10 Oeste 12 Oeste 0 -- -- 78
2020-06-13 23:00:00 10.6 8 Oeste 17 Oeste 0 -- -- 77
2020-06-13 22:00:00 12.6 9 Oeste 30 Oeste 0 -- -- 69
2020-06-13 21:00:00 15.3 21 Oeste 38 Oeste 0 -- -- 52
2020-06-13 20:00:00 15.5 19 Oeste 37 Oeste 0 -- -- 54
2020-06-13 19:00:00 16.2 21 Sudoeste 38 Oeste 0 -- -- 54
2020-06-13 18:00:00 17.1 24 Oeste 39 Sudoeste 0 -- -- 55
2020-06-13 17:00:00 15.5 19 Oeste 37 Sudoeste 0 -- -- 64
2020-06-13 16:00:00 15.5 21 Sudoeste 40 Oeste 0 -- -- 63
2020-06-13 15:00:00 15.5 25 Sudoeste 39 Sudoeste 0 -- -- 67
2020-06-13 14:00:00 14.2 18 Sudoeste 34 Sudoeste 0 -- -- 68
2020-06-13 13:00:00 14.6 21 Oeste 36 Sudoeste 0 -- -- 68
2020-06-13 12:00:00 13.5 21 Sudoeste 33 Sudoeste 0 -- -- 70
2020-06-13 11:00:00 11.5 20 Oeste 28 Sudoeste 0 -- -- 77
2020-06-13 10:00:00 11 15 Sudoeste 33 Sudoeste 0 -- -- 85
2020-06-13 09:00:00 9.7 14 Sudoeste 24 Sudoeste 0 -- -- 94
2020-06-13 08:00:00 7.2 12 Sudoeste 19 Sudoeste 0 -- -- 100
2020-06-13 07:00:00 6.9 15 Sudoeste 25 Sudoeste 0 -- -- 100
2020-06-13 06:00:00 6.9 12 Sudoeste 19 Sudoeste 0 -- -- 100
2020-06-13 05:00:00 7.1 6 Oeste 18 Oeste 0 -- -- 98
2020-06-13 04:00:00 7.7 9 Oeste 23 Sudoeste 0 -- -- 97
2020-06-13 03:00:00 8.4 17 Oeste 26 Oeste 0 -- -- 96
2020-06-13 02:00:00 8.5 15 Sudoeste 27 Sudoeste 0 -- -- 96
2020-06-13 01:00:00 9 18 Oeste 27 Oeste 0 -- -- 96
2020-06-13 00:00:00 9.1 13 Sudoeste 24 Sudoeste 0 -- -- 97
2020-06-12 23:00:00 9.3 18 Sudoeste 28 Sudoeste 0 -- -- 97
2020-06-12 22:00:00 9.3 19 Sudoeste 30 Sudoeste 0.4 -- -- 97
2020-06-12 21:00:00 9.8 19 Oeste 40 Sudoeste 0.4 -- -- 96
2020-06-12 20:00:00 10.3 22 Sudoeste 38 Sudoeste 0.4 -- -- 92
2020-06-12 19:00:00 10.7 17 Oeste 36 Oeste 0.4 -- -- 90
2020-06-12 18:00:00 11.2 18 Oeste 40 Sudoeste 0 -- -- 87
2020-06-12 17:00:00 9.8 23 Oeste 40 Oeste 1.8 -- -- 92
2020-06-12 16:00:00 11.5 21 Oeste 41 Oeste 0.8 -- -- 86
2020-06-12 15:00:00 11.5 30 Oeste 48 Sudoeste 0.2 -- -- 81
2020-06-12 14:00:00 12.6 27 Sudoeste 45 Sudoeste 0 -- -- 72
2020-06-12 13:00:00 12.2 31 Sudoeste 47 Sudoeste 0 -- -- 78
2020-06-12 12:00:00 11.5 21 Oeste 35 Oeste 0 -- -- 81
2020-06-12 11:00:00 9.8 21 Sudoeste 34 Sudoeste 0 -- -- 93
2020-06-12 10:00:00 9.2 19 Sudoeste 33 Oeste 0 -- -- 94
2020-06-12 09:00:00 8.5 18 Sudoeste 37 Sudoeste 0 -- -- 98
2020-06-12 08:00:00 8 20 Sudoeste 39 Sudoeste 0.2 -- -- 99
2020-06-12 07:00:00 7.8 18 Sudoeste 33 Sudoeste 1 -- -- 99
2020-06-12 06:00:00 7.6 21 Sudoeste 40 Sudoeste 0.2 -- -- 98
2020-06-12 05:00:00 7.6 25 Sudoeste 39 Sudoeste 0 -- -- 95
2020-06-12 04:00:00 7.7 21 Sudoeste 43 Sudoeste 0 -- -- 89
2020-06-12 03:00:00 8.1 27 Sudoeste 47 Sudoeste 0 -- -- 81
2020-06-12 02:00:00 7.9 26 Sudoeste 44 Sudoeste 0 -- -- 80
2020-06-12 01:00:00 8.4 31 Sudoeste 44 Sudoeste 0 -- -- 76
2020-06-12 00:00:00 8.4 17 Oeste 33 Oeste 0 -- -- 71
2020-06-11 23:00:00 8.3 19 Oeste 48 Oeste 0 -- -- 72
2020-06-11 22:00:00 10.4 27 Oeste 43 Oeste 0 -- -- 63
2020-06-11 21:00:00 11.4 21 Oeste 42 Noroeste 0 -- -- 64
2020-06-11 20:00:00 13.8 23 Oeste 48 Noroeste 0 -- -- 59
2020-06-11 19:00:00 15.6 27 Oeste 52 Sudoeste 0 -- -- 48
2020-06-11 18:00:00 15.5 31 Oeste 53 Sudoeste 0 -- -- 47
2020-06-11 17:00:00 15.6 29 Oeste 52 Oeste 0 -- -- 58
2020-06-11 16:00:00 17 34 Sudoeste 55 Sudoeste 0 -- -- 54
2020-06-11 15:00:00 16.3 27 Oeste 56 Oeste 0 -- -- 62
2020-06-11 14:00:00 14.5 20 Oeste 46 Oeste 0 -- -- 70
2020-06-11 13:00:00 14 16 Sudoeste 34 Oeste 0 -- -- 77
2020-06-11 12:00:00 13 21 Oeste 42 Oeste 0 -- -- 79
2020-06-11 11:00:00 13 21 Sudoeste 42 Sudoeste 0 -- -- 76
2020-06-11 10:00:00 12 28 Oeste 45 Sudoeste 0 -- -- 80
2020-06-11 09:00:00 11.5 17 Oeste 35 Oeste 0 -- -- 83
2020-06-11 08:00:00 10.8 15 Sudoeste 31 Sudoeste 0 -- -- 83
2020-06-11 07:00:00 10.6 26 Sudoeste 37 Sudoeste 0 -- -- 84
2020-06-11 06:00:00 10.8 15 Sudoeste 30 Sudoeste 0 -- -- 86
2020-06-11 05:00:00 10.8 14 Sudoeste 26 Sudoeste 0 -- -- 89
2020-06-11 04:00:00 11.4 13 Sudoeste 24 Sudoeste 0 -- -- 82
2020-06-11 03:00:00 11.4 12 Sudoeste 22 Oeste 0 -- -- 79
2020-06-11 02:00:00 11.4 6 Sudoeste 15 Oeste 0 -- -- 74
2020-06-11 01:00:00 11.8 6 Noroeste 15 Sudoeste 0 -- -- 73
2020-06-11 00:00:00 14.5 9 Sudoeste 18 Oeste 0 -- -- 61